Flight Track Log - Related Links

Times and Time Zones

All times are in EDT time to prevent confusion due to time zone crossing. See the EJA929 flight status page for this flight to view local times or setup timezone preferences in your user account.


Time Position Orientation Groundspeed Altitude Reporting Facility
EDT Latitude Longitude Course Direction KTS MPH feet Rate Location/Type
Tue 02:27:54 PM 40.7500 -73.8500 288° West 167 192 1,400  Level New York TRACON
Tue 02:28:54 PM 40.7333 -73.7833 108° East 246 283 4,200 3,150 Climbing New York TRACON
Tue 02:29:54 PM 40.7833 -73.8167 333° Northwest 223 257 7,700 2,500 Climbing New York TRACON
Tue 02:30:54 PM 40.8500 -73.8667 330° Northwest 277 319 9,200 1,579 Climbing New York TRACON
Tue 02:31:48 PM 40.9000 -73.9500 308° West 300 345 10,700 2,474 Climbing New York TRACON
Tue 02:32:48 PM 40.9000 -74.0500 270° West 280 322 13,900 2,150 Climbing New York TRACON
Tue 02:33:00 PM 40.8550 -74.6865 288° West  Level FlightAware Approximate
Tue 02:33:48 PM 40.8667 -74.1500 246° West 306 352 15,000  Level New York TRACON
Tue 02:34:48 PM 40.8167 -74.2667 241° Southwest 374 430 15,100 800 Climbing New York TRACON
Tue 02:35:48 PM 40.8167 -74.4000 270° West 372 428 16,600 609 Climbing New York TRACON
Tue 02:38:05 PM 40.8497 -74.7214 278° West 420 483 17,100 154 Climbing New York Center
Tue 02:39:03 PM 40.8344 -74.8603 262° West 420 483 17,100 559 Level New York Center
Tue 02:40:03 PM 40.8161 -75.0264 262° West 431 496 18,200 984 Climbing New York Center
Tue 02:41:05 PM 40.7986 -75.1625 260° West 425 489 19,100 1,082 Climbing New York Center
Tue 02:42:05 PM 40.7806 -75.3119 261° West 425 489 20,400 1,231 Climbing New York Center
Tue 02:43:02 PM 40.7625 -75.4561 261° West 420 483 21,500 1,220 Climbing New York Center
Tue 02:44:03 PM 40.7439 -75.6028 261° West 420 483 22,800 1,475 Climbing New York Center
Tue 02:45:04 PM 40.7297 -75.7442 263° West 415 478 24,500 1,770 Climbing New York Center
Tue 02:46:05 PM 40.7114 -75.8853 260° West 401 461 26,400 2,033 Climbing New York Center
Tue 02:47:05 PM 40.6906 -76.0258 259° West 396 456 28,600 2,136 Climbing New York Center
Tue 02:48:03 PM 40.6739 -76.1617 261° West 391 450 30,600 1,866 Climbing New York Center
Tue 02:49:04 PM 40.6719 -76.2956 269° West 379 436 32,300 1,525 Climbing New York Center
Tue 02:50:05 PM 40.6928 -76.4311 282° West 374 430 33,700 1,240 Climbing New York Center
Tue 02:51:05 PM 40.7128 -76.5725 281° West 379 436 34,800 1,050 Climbing New York Center
Tue 02:52:05 PM 40.7350 -76.7169 282° West 395 455 35,800 1,017 Climbing New York Center
Tue 02:53:03 PM 40.7586 -76.8669 282° West 407 468 36,800 950 Climbing New York Center
Tue 02:54:05 PM 40.7797 -77.0222 280° West 418 481 37,700 639 Climbing New York Center
Tue 02:55:05 PM 40.8025 -77.1781 281° West 430 495 38,100 203 Climbing New York Center
Tue 02:56:03 PM 40.8283 -77.3561 281° West 436 502 38,100  Level New York Center
Tue 02:58:12 PM 40.8800 -77.7325 280° West 484 557 38,100  Level Cleveland Center
Tue 02:59:12 PM 40.9053 -77.9100 281° West 484 557 38,100 200 Level Cleveland Center
Tue 03:00:12 PM 40.9256 -78.0714 279° West 489 563 38,500 650 Climbing Cleveland Center
Tue 03:01:12 PM 40.9464 -78.2631 278° West 489 563 39,400 1,050 Climbing Cleveland Center
Tue 03:02:12 PM 40.9700 -78.4133 282° West 482 555 40,600 1,150 Climbing Cleveland Center
Tue 03:03:12 PM 40.9878 -78.5806 278° West 476 548 41,700 1,100 Climbing Cleveland Center
Tue 03:04:12 PM 41.0069 -78.7394 279° West 459 528 42,800 700 Climbing Cleveland Center
Tue 03:05:12 PM 41.0283 -78.9042 280° West 454 522 43,100 100 Climbing Cleveland Center
Tue 03:07:12 PM 41.0661 -79.2364 279° West 459 528 43,100  Level Cleveland Center
Tue 03:08:12 PM 41.0847 -79.4042 278° West 465 535 43,100  Level Cleveland Center
Tue 03:09:12 PM 41.1050 -79.5772 279° West 470 541 43,100  Level Cleveland Center
Tue 03:10:12 PM 41.1253 -79.7672 278° West 476 548 43,100  Level Cleveland Center
Tue 03:11:12 PM 41.1411 -79.9408 277° West 482 555 43,100  Level Cleveland Center
Tue 03:12:12 PM 41.1606 -80.1114 279° West 477 549 43,100  Level Cleveland Center
Tue 03:13:12 PM 41.1819 -80.2853 279° West 477 549 43,100  Level Cleveland Center
Tue 03:14:12 PM 41.1947 -80.4453 276° West 484 557 43,100 -50 Level Cleveland Center
Tue 03:15:12 PM 41.2117 -80.6161 278° West 484 557 43,000 -50 Descending Cleveland Center
Tue 03:16:12 PM 41.2303 -80.8067 277° West 484 557 43,000  Level Cleveland Center
Tue 03:17:12 PM 41.2483 -80.9836 278° West 484 557 43,000  Level Cleveland Center
Tue 03:18:12 PM 41.2644 -81.1578 277° West 484 557 43,000  Level Cleveland Center
Tue 03:19:12 PM 41.2822 -81.3292 278° West 482 555 43,000 50 Level Cleveland Center
Tue 03:20:12 PM 41.3017 -81.5064 278° West 477 549 43,100 50 Climbing Cleveland Center
Tue 03:21:12 PM 41.3189 -81.6808 278° West 482 555 43,100 -50 Level Cleveland Center
Tue 03:22:12 PM 41.3339 -81.8497 277° West 482 555 43,000  Descending Cleveland Center
Tue 03:23:12 PM 41.3483 -82.0242 276° West 482 555 43,100 50 Climbing Cleveland Center
Tue 03:24:12 PM 41.3586 -82.2069 274° West 488 562 43,100  Level Cleveland Center
Tue 03:25:12 PM 41.3706 -82.3789 275° West 486 559 43,100 150 Level Cleveland Center
Tue 03:26:12 PM 41.3864 -82.5564 277° West 480 552 43,400 500 Climbing Cleveland Center
Tue 03:27:12 PM 41.4356 -82.7131 293° West 466 536 44,100 700 Climbing Cleveland Center
Tue 03:28:12 PM 41.4806 -82.8642 292° West 452 520 44,800 500 Climbing Cleveland Center
Tue 03:29:12 PM 41.5297 -83.0158 293° West 446 513 45,100 100 Climbing Cleveland Center
Tue 03:30:12 PM 41.5742 -83.1728 291° West 446 513 45,000 -50 Descending Cleveland Center
Tue 03:31:12 PM 41.5917 -83.3181 279° West 446 513 45,000 50 Level Cleveland Center
Tue 03:32:12 PM 41.6000 -83.4850 274° West 452 520 45,100 50 Climbing Cleveland Center
Tue 03:33:12 PM 41.6019 -83.6544 271° West 457 526 45,100 -50 Level Cleveland Center
Tue 03:34:12 PM 41.5950 -83.8264 267° West 462 532 45,000 -49 Descending Cleveland Center
Tue 03:35:15 PM 41.5817 -83.9836 264° West 460 529 45,000 48 Level Chicago Center
Tue 03:36:16 PM 41.5522 -84.1858 259° West 463 533 45,100 49 Climbing Chicago Center
Tue 03:37:18 PM 41.5194 -84.3525 255° West 463 533 45,100  Level Chicago Center
Tue 03:38:20 PM 41.4744 -84.5150 250° West 465 535 45,100 -48 Level Chicago Center
Tue 03:39:22 PM 41.4286 -84.6769 249° West 466 536 45,000 -48 Descending Chicago Center
Tue 03:40:24 PM 41.3856 -84.8419 251° West 469 540 45,000 48 Level Chicago Center
Tue 03:41:26 PM 41.3603 -85.0106 259° West 466 536 45,100  Climbing Chicago Center
Tue 03:42:27 PM 41.3444 -85.1817 263° West 461 531 45,000  Descending Chicago Center
Tue 03:43:29 PM 41.3314 -85.3536 264° West 463 533 45,100 48 Climbing Chicago Center
Tue 03:44:31 PM 41.2972 -85.5581 258° West 465 535 45,100 -48 Level Chicago Center
Tue 03:45:33 PM 41.2683 -85.7272 257° West 467 537 45,000 -48 Descending Chicago Center
Tue 03:46:35 PM 41.2486 -85.8964 261° West 463 533 45,000 48 Level Chicago Center
Tue 03:47:38 PM 41.2272 -86.0658 261° West 465 535 45,100 48 Climbing Chicago Center
Tue 03:48:39 PM 41.2100 -86.2339 262° West 462 532 45,100 -49 Level Chicago Center
Tue 03:49:41 PM 41.1928 -86.4042 262° West 465 535 45,000  Descending Chicago Center
Tue 03:50:43 PM 41.1836 -86.5744 266° West 464 534 45,100 49 Climbing Chicago Center
Tue 03:51:44 PM 41.1994 -86.7556 277° West 466 536 45,100  Level Chicago Center
Tue 03:52:46 PM 41.2161 -86.9569 276° West 462 532 45,100 -48 Level Chicago Center
Tue 03:53:48 PM 41.2328 -87.1267 277° West 464 534 45,000 -48 Descending Chicago Center
Tue 03:54:50 PM 41.2458 -87.2953 276° West 463 533 45,000  Level Chicago Center
Tue 03:55:52 PM 41.2578 -87.4644 275° West 462 532 45,000  Level Chicago Center
Tue 03:56:54 PM 41.2725 -87.6308 277° West 458 527 45,000  Level Chicago Center
Tue 03:57:56 PM 41.2856 -87.8006 276° West 461 531 45,000  Level Chicago Center
Tue 03:58:58 PM 41.2981 -87.9708 276° West 462 532 45,000  Level Chicago Center
Tue 04:00:00 PM 41.3147 -88.1522 277° West 472 543 45,000  Level Chicago Center
Tue 04:01:02 PM 41.3272 -88.3517 275° West 461 531 45,000  Level Chicago Center
Tue 04:02:04 PM 41.3394 -88.5214 276° West 462 532 45,000  Level Chicago Center
Tue 04:03:06 PM 41.3514 -88.6900 275° West 462 532 45,000  Level Chicago Center
Tue 04:04:08 PM 41.3636 -88.8608 276° West 465 535 45,000  Level Chicago Center
Tue 04:05:10 PM 41.3747 -89.0308 275° West 464 534 45,000  Level Chicago Center
Tue 04:06:12 PM 41.3864 -89.2047 275° West 469 540 45,000  Level Chicago Center
Tue 04:07:14 PM 41.4014 -89.4094 276° West 465 535 45,000  Level Chicago Center
Tue 04:08:16 PM 41.4119 -89.5806 275° West 465 535 45,000  Level Chicago Center
Tue 04:09:18 PM 41.4225 -89.7508 275° West 463 533 45,000 48 Level Chicago Center
Tue 04:10:20 PM 41.4336 -89.9217 275° West 464 534 45,100  Climbing Chicago Center
Tue 04:11:21 PM 41.4436 -90.0925 275° West 465 535 45,000 -49 Descending Chicago Center
Tue 04:12:23 PM 41.4533 -90.2633 274° West 464 534 45,000  Level Chicago Center
Tue 04:13:25 PM 41.4656 -90.4692 275° West 466 536 45,000 48 Level Chicago Center
Tue 04:14:27 PM 41.4731 -90.6439 273° West 472 543 45,100  Climbing Chicago Center
Tue 04:15:29 PM 41.4817 -90.8189 274° West 477 549 45,000 -48 Descending Chicago Center
Tue 04:16:31 PM 41.4897 -90.9897 274° West 467 537 45,000  Level Chicago Center
Tue 04:17:34 PM 41.4981 -91.1603 274° West 464 534 45,000 48 Level Chicago Center
Tue 04:18:36 PM 41.5083 -91.3633 274° West 462 532 45,100  Climbing Chicago Center
Tue 04:19:38 PM 41.5281 -91.5306 279° West 459 528 45,000  Descending Chicago Center
Tue 04:20:40 PM 41.5492 -91.6986 280° West 461 531 45,100 48 Climbing Chicago Center
Tue 04:21:42 PM 41.5697 -91.8664 279° West 461 531 45,100 -48 Level Chicago Center
Tue 04:22:44 PM 41.5906 -92.0344 279° West 459 528 45,000 -48 Descending Chicago Center
Tue 04:23:46 PM 41.6106 -92.2036 279° West 463 533 45,000  Level Chicago Center
Tue 04:24:48 PM 41.6347 -92.4047 279° West 461 531 45,000  Level Chicago Center
Tue 04:25:50 PM 41.6542 -92.5739 279° West 462 532 45,000  Level Chicago Center
Tue 04:26:33 PM 41.6661 -92.6728 279° West 461 531 45,000  Level Minneapolis Center
Tue 04:27:35 PM 41.6883 -92.8756 278° West 463 533 45,000  Level Minneapolis Center
Tue 04:28:37 PM 41.7072 -93.0431 279° West 461 531 45,000  Level Minneapolis Center
Tue 04:29:39 PM 41.7253 -93.2089 278° West 459 528 45,000  Level Minneapolis Center
Tue 04:30:42 PM 41.7439 -93.3783 278° West 463 533 45,000  Level Minneapolis Center
Tue 04:31:44 PM 41.7656 -93.5747 278° West 451 519 45,000  Level Minneapolis Center
Tue 04:32:45 PM 41.7792 -93.7092 278° West 456 525 45,000  Level Minneapolis Center
Tue 04:33:47 PM 41.7958 -93.8719 278° West 456 525 45,000  Level Minneapolis Center
Tue 04:35:02 PM 41.8172 -94.0767 278° West 460 529 45,000  Level Minneapolis Center
Tue 04:36:04 PM 41.8417 -94.3133 278° West 458 527 45,000 48 Level Minneapolis Center
Tue 04:37:06 PM 41.8542 -94.4492 277° West 459 528 45,100  Climbing Minneapolis Center
Tue 04:38:08 PM 41.8733 -94.6525 277° West 458 527 45,000 -48 Descending Minneapolis Center
Tue 04:39:11 PM 41.8917 -94.8233 278° West 460 529 45,000  Level Minneapolis Center
Tue 04:40:13 PM 41.9078 -94.9925 277° West 459 528 45,000  Level Minneapolis Center
Tue 04:41:14 PM 41.9203 -95.1278 277° West 459 528 45,000  Level Minneapolis Center
Tue 04:42:17 PM 41.9411 -95.3642 277° West 459 528 45,000 48 Level Minneapolis Center
Tue 04:43:19 PM 41.9561 -95.5331 277° West 458 527 45,100  Climbing Minneapolis Center
Tue 04:44:21 PM 41.9703 -95.6994 277° West 453 521 45,000 -48 Descending Minneapolis Center
Tue 04:45:23 PM 41.9847 -95.8647 277° West 449 517 45,000  Level Minneapolis Center
Tue 04:46:25 PM 41.9986 -96.0308 276° West 450 518 45,000  Level Minneapolis Center
Tue 04:47:27 PM 42.0150 -96.2283 276° West 448 516 45,000  Level Minneapolis Center
Tue 04:48:29 PM 42.0283 -96.3939 276° West 448 516 45,000  Level Minneapolis Center
Tue 04:49:31 PM 42.0419 -96.5603 276° West 449 517 45,000  Level Minneapolis Center
Tue 04:50:33 PM 42.0550 -96.7253 276° West 448 516 45,000 48 Level Minneapolis Center
Tue 04:51:35 PM 42.0675 -96.8925 276° West 448 516 45,100  Climbing Minneapolis Center
Tue 04:52:49 PM 42.0833 -97.0928 276° West 451 519 45,000 -40 Descending Minneapolis Center
Tue 04:54:04 PM 42.0969 -97.2922 275° West 448 516 45,000  Level Minneapolis Center
Tue 04:55:18 PM 42.1117 -97.4925 276° West 449 517 45,000  Level Minneapolis Center
Tue 04:56:21 PM 42.1269 -97.6917 276° West 447 514 45,000 48 Level Minneapolis Center
Tue 04:57:23 PM 42.1386 -97.8686 275° West 450 518 45,100 48 Climbing Minneapolis Center
Tue 04:58:25 PM 42.1472 -98.0022 275° West 448 516 45,100  Level Minneapolis Center
Tue 04:59:39 PM 42.1611 -98.2014 275° West 447 514 45,100  Level Minneapolis Center
Tue 05:00:42 PM 42.1761 -98.4350 275° West 447 514 45,100  Level Minneapolis Center
Tue 05:01:44 PM 42.1853 -98.6000 274° West 445 512 45,100  Level Minneapolis Center
Tue 05:02:45 PM 42.1958 -98.7642 275° West 443 510 45,100  Level Denver Center
Tue 05:03:48 PM 42.2053 -98.9289 274° West 442 509 45,100  Level Minneapolis Center
Tue 05:04:50 PM 42.2147 -99.0933 274° West 441 507 45,100  Level Minneapolis Center
Tue 05:05:52 PM 42.2239 -99.2594 274° West 444 511 45,100 -49 Level Minneapolis Center
Tue 05:06:53 PM 42.2356 -99.4578 275° West 444 511 45,000  Descending Denver Center
Tue 05:07:55 PM 42.2436 -99.6239 274° West 446 513 45,100  Climbing Denver Center
Tue 05:08:58 PM 42.2536 -99.7900 275° West 446 513 45,000  Descending Minneapolis Center
Tue 05:09:59 PM 42.2617 -99.9783 273° West 447 514 45,100 49 Climbing Denver Center
Tue 05:11:01 PM 42.2700 -100.1394 274° West 450 518 45,100  Level Denver Center
Tue 05:12:03 PM 42.2775 -100.3006 274° West 450 518 45,100  Level Denver Center
Tue 05:13:05 PM 42.2861 -100.4894 274° West 452 520 45,100  Level Denver Center
Tue 05:14:07 PM 42.2933 -100.6517 273° West 453 521 45,100 -48 Level Denver Center
Tue 05:15:09 PM 42.3022 -100.8417 274° West 455 524 45,000  Descending Denver Center
Tue 05:16:11 PM 42.3081 -101.0056 273° West 456 525 45,100 48 Climbing Denver Center
Tue 05:17:13 PM 42.3169 -101.1936 274° West 451 519 45,100  Level Denver Center
Tue 05:18:15 PM 42.3217 -101.3567 272° West 454 522 45,100 -48 Level Denver Center
Tue 05:19:17 PM 42.3289 -101.5453 273° West 452 520 45,000  Descending Denver Center
Tue 05:20:19 PM 42.3347 -101.7089 273° West 455 524 45,100  Climbing Denver Center
Tue 05:21:21 PM 42.3422 -101.8897 273° West 453 521 45,000  Descending Denver Center
Tue 05:22:23 PM 42.3467 -102.0794 272° West 453 521 45,100  Climbing Denver Center
Tue 05:23:25 PM 42.3514 -102.2406 272° West 449 517 45,000  Descending Denver Center
Tue 05:24:27 PM 42.3569 -102.4019 273° West 448 516 45,100  Climbing Denver Center
Tue 05:25:29 PM 42.3619 -102.5919 272° West 452 520 45,000  Descending Denver Center
Tue 05:26:31 PM 42.3672 -102.7544 273° West 454 522 45,100 48 Climbing Denver Center
Tue 05:27:33 PM 42.3706 -102.9453 271° West 454 522 45,100  Level Denver Center
Tue 05:28:35 PM 42.3747 -103.1081 272° West 453 521 45,100  Level Denver Center
Tue 05:29:37 PM 42.3786 -103.2981 272° West 453 521 45,100  Level Denver Center
Tue 05:30:39 PM 42.3811 -103.4614 271° West 452 520 45,100 -48 Level Denver Center
Tue 05:31:41 PM 42.3856 -103.6533 272° West 456 525 45,000  Descending Denver Center
Tue 05:32:43 PM 42.3881 -103.8178 271° West 456 525 45,100 48 Climbing Denver Center
Tue 05:33:45 PM 42.3906 -104.0111 271° West 458 527 45,100 -48 Level Denver Center
Tue 05:34:47 PM 42.3919 -104.1758 271° West 457 526 45,000  Descending Denver Center
Tue 05:35:49 PM 42.3933 -104.3425 271° West 458 527 45,100  Climbing Denver Center
Tue 05:36:51 PM 42.3933 -104.5367 270° West 457 526 45,000 97 Descending Denver Center
Tue 05:37:53 PM 42.3933 -104.7050 270° West 459 528 45,300 290 Climbing Denver Center
Tue 05:38:55 PM 42.3983 -104.8956 272° West 452 520 45,600 265 Climbing Denver Center
Tue 05:40:09 PM 42.4000 -105.0553 271° West 443 510 45,900 175 Climbing Denver Center
Tue 05:41:12 PM 42.4011 -105.2692 270° West 446 513 46,000 96 Climbing Denver Center
Tue 05:42:14 PM 42.4019 -105.4322 270° West 451 519 46,100 48 Climbing Denver Center
Tue 05:43:16 PM 42.4022 -105.6219 270° West 454 522 46,100 -44 Level Denver Center
Tue 05:44:30 PM 42.4022 -105.7836 270° West 451 519 46,000  Descending Denver Center
Tue 05:45:32 PM 42.4000 -105.9983 269° West 447 514 46,100  Climbing Denver Center
Tue 05:46:35 PM 42.4006 -106.1589 270° West 449 517 46,000  Descending Denver Center
Tue 05:47:37 PM 42.3992 -106.3467 269° West 448 516 46,100 48 Climbing Denver Center
Tue 05:48:39 PM 42.3992 -106.5075 270° West 448 516 46,100  Level Denver Center
Tue 05:49:41 PM 42.3975 -106.6981 269° West 452 520 46,100  Level Denver Center
Tue 05:50:43 PM 42.3958 -106.8597 269° West 451 519 46,100  Level Denver Center
Tue 05:51:45 PM 42.3931 -107.0456 269° West 444 511 46,100  Level Denver Center
Tue 05:52:47 PM 42.3908 -107.2061 269° West 446 513 46,100 -48 Level Denver Center
Tue 05:53:49 PM 42.3892 -107.3925 269° West 445 512 46,000  Descending Denver Center
Tue 05:54:51 PM 42.3861 -107.5519 269° West 445 512 46,100  Climbing Denver Center
Tue 05:55:53 PM 42.3828 -107.7386 269° West 445 512 46,000  Descending Denver Center
Tue 05:56:59 PM 42.3806 -107.9258 269° West 444 511 46,100 47 Climbing Salt Lake Center
Tue 05:58:01 PM 42.3775 -108.0861 269° West 445 512 46,100  Level Salt Lake Center
Tue 05:59:03 PM 42.3736 -108.2728 268° West 446 513 46,100  Level Salt Lake Center
Tue 06:00:05 PM 42.3689 -108.4331 268° West 446 513 46,100  Level Salt Lake Center
Tue 06:01:07 PM 42.3639 -108.6208 268° West 450 518 46,100 -48 Level Salt Lake Center
Tue 06:02:09 PM 42.3594 -108.7814 268° West 448 516 46,000 -48 Descending Salt Lake Center
Tue 06:03:11 PM 42.3544 -108.9414 268° West 448 516 46,000 48 Level Salt Lake Center
Tue 06:04:13 PM 42.3492 -109.1283 268° West 447 514 46,100 48 Climbing Salt Lake Center
Tue 06:05:15 PM 42.3439 -109.2900 268° West 450 518 46,100  Level Salt Lake Center
Tue 06:06:17 PM 42.3381 -109.4781 268° West 450 518 46,100 -48 Level Salt Lake Center
Tue 06:07:20 PM 42.3319 -109.6417 267° West 455 524 46,000  Descending Salt Lake Center
Tue 06:08:22 PM 42.3247 -109.8306 267° West 453 521 46,100 48 Climbing Salt Lake Center
Tue 06:09:24 PM 42.3192 -109.9936 267° West 455 524 46,100  Level Salt Lake Center
Tue 06:10:26 PM 42.3106 -110.1836 267° West 455 524 46,100  Level Salt Lake Center
Tue 06:11:28 PM 42.3050 -110.3475 267° West 457 526 46,100  Level Salt Lake Center
Tue 06:12:30 PM 42.2969 -110.5394 267° West 458 527 46,100  Level Salt Lake Center
Tue 06:13:32 PM 42.2894 -110.7036 267° West 459 528 46,100  Level Salt Lake Center
Tue 06:14:34 PM 42.2808 -110.8942 267° West 457 526 46,100 -48 Level Salt Lake Center
Tue 06:15:36 PM 42.2736 -111.0500 266° West 462 532 46,000  Descending Salt Lake Center
Tue 06:16:38 PM 42.2639 -111.2572 266° West 463 533 46,100 48 Climbing Salt Lake Center
Tue 06:17:40 PM 42.2550 -111.4286 266° West 461 531 46,100 -48 Level Salt Lake Center
Tue 06:18:42 PM 42.2461 -111.6008 266° West 463 533 46,000 -387 Descending Salt Lake Center
Tue 06:19:44 PM 42.2364 -111.7719 266° West 460 529 45,300 -435 Descending Salt Lake Center
Tue 06:20:46 PM 42.2283 -111.9394 266° West 452 520 45,100 -1,258 Descending Salt Lake Center
Tue 06:21:48 PM 42.2164 -112.1378 265° West 447 514 42,700 -2,371 Descending Salt Lake Center
Tue 06:22:50 PM 42.2069 -112.3036 266° West 446 513 40,200 -2,516 Descending Salt Lake Center
Tue 06:23:52 PM 42.2008 -112.4756 267° West 457 526 37,500 -2,806 Descending Salt Lake Center
Tue 06:24:54 PM 42.2253 -112.6475 281° West 468 539 34,400 -3,048 Descending Salt Lake Center
Tue 06:25:56 PM 42.2508 -112.8164 282° West 465 535 31,200 -3,339 Descending Salt Lake Center
Tue 06:26:58 PM 42.2744 -112.9931 280° West 474 545 27,500 -3,387 Descending Salt Lake Center
Tue 06:28:00 PM 42.3064 -113.1986 282° West 471 542 24,200 -1,984 Descending Salt Lake Center
Tue 06:29:02 PM 42.3292 -113.3653 281° West 458 527 23,400 -1,839 Descending Salt Lake Center
Tue 06:30:04 PM 42.3517 -113.5286 281° West 448 516 20,400 -3,145 Descending Salt Lake Center
Tue 06:31:06 PM 42.3731 -113.6839 281° West 432 497 16,900 -3,532 Descending Salt Lake Center
Tue 06:32:08 PM 42.3925 -113.8281 280° West 403 464 13,100 -2,371 Descending Salt Lake Center
Tue 06:33:10 PM 42.4156 -113.9997 280° West 412 474 12,000 -677 Descending Salt Lake Center
Tue 06:34:12 PM 42.4294 -114.1150 279° West 352 405 11,700 -1,016 Descending Salt Lake Center
Tue 06:35:14 PM 42.4519 -114.2192 286° West 249 287 9,900 -1,887 Descending Salt Lake Center
Tue 06:36:16 PM 42.4678 -114.2939 286° West 202 232 7,800 -1,500 Descending Salt Lake Center
Tue 06:37:18 PM 42.4775 -114.3481 284° West 189 217 6,800 -968 Descending Salt Lake Center
Tue 06:39:00 PM 42.4667 -114.4833 North  Level FlightAware Approximate

Login

Don't have an account? Register now (free) for customized features, flight alerts, and more!